createdAt,value
2016-12-30T00:00:43.507Z,1021.97
2016-12-30T00:01:53.857Z,1021.91
2016-12-30T00:03:04.189Z,1021.9
2016-12-30T00:04:14.149Z,1021.85
2016-12-30T00:05:24.483Z,1021.82
2016-12-30T00:06:34.833Z,1021.84
2016-12-30T00:07:44.837Z,1021.84
2016-12-30T00:08:54.786Z,1021.83
2016-12-30T00:10:05.529Z,1021.81
2016-12-30T00:11:15.467Z,1021.81
2016-12-30T00:12:26.207Z,1021.78
2016-12-30T00:13:36.564Z,1021.81
2016-12-30T00:14:47.320Z,1021.82
2016-12-30T00:15:58.048Z,1021.84
2016-12-30T00:17:08.780Z,1021.82
2016-12-30T00:18:18.746Z,1021.87
2016-12-30T00:19:29.094Z,1021.88
2016-12-30T00:20:39.435Z,1021.91
2016-12-30T00:21:49.784Z,1021.96
2016-12-30T00:23:00.139Z,1021.97
2016-12-30T00:24:10.474Z,1021.95
2016-12-30T00:25:20.425Z,1021.99
2016-12-30T00:26:31.171Z,1021.98
2016-12-30T00:27:41.129Z,1022.02
2016-12-30T00:28:51.461Z,1022
2016-12-30T00:30:01.807Z,1022.04
2016-12-30T00:31:12.544Z,1022.08
2016-12-30T00:32:23.280Z,1022.13
2016-12-30T00:33:33.644Z,1022.18
2016-12-30T00:34:44.386Z,1022.16
2016-12-30T00:35:55.117Z,1022.18
2016-12-30T00:37:05.493Z,1022.18
2016-12-30T00:38:15.449Z,1022.2
2016-12-30T00:39:26.198Z,1022.23
2016-12-30T00:40:36.924Z,1022.26
2016-12-30T00:41:47.693Z,1022.26
2016-12-30T00:42:58.070Z,1022.25
2016-12-30T00:44:08.014Z,1022.2
2016-12-30T00:45:18.348Z,1022.2
2016-12-30T00:46:29.087Z,1022.27
2016-12-30T00:47:39.440Z,1022.28
2016-12-30T00:48:49.000Z,1022.29
2016-12-30T00:49:59.772Z,1022.25
2016-12-30T00:51:10.502Z,1022.21
2016-12-30T00:52:21.240Z,1022.19
2016-12-30T00:53:31.986Z,1022.22
2016-12-30T00:54:42.733Z,1022.24
2016-12-30T00:55:53.079Z,1022.28
2016-12-30T00:57:03.810Z,1022.29
2016-12-30T00:58:14.558Z,1022.27
2016-12-30T00:59:25.339Z,1022.28
2016-12-30T01:00:36.099Z,1022.29
2016-12-30T01:01:46.823Z,1022.33
2016-12-30T01:02:57.194Z,1022.33
2016-12-30T01:04:07.926Z,1022.31
2016-12-30T01:05:18.263Z,1022.32
2016-12-30T01:06:28.603Z,1022.32
2016-12-30T01:07:39.357Z,1022.31
2016-12-30T01:08:49.704Z,1022.32
2016-12-30T01:10:00.434Z,1022.34
2016-12-30T01:11:10.783Z,1022.3
2016-12-30T01:12:20.352Z,1022.28
2016-12-30T01:13:31.084Z,1022.28
2016-12-30T01:14:41.041Z,1022.28
2016-12-30T01:15:51.383Z,1022.25
2016-12-30T01:17:00.936Z,1022.23
2016-12-30T01:18:11.316Z,1022.23
2016-12-30T01:19:22.039Z,1022.21
2016-12-30T01:20:31.197Z,1022.18
2016-12-30T01:21:41.921Z,1022.19
2016-12-30T01:22:52.268Z,1022.17
2016-12-30T01:24:03.026Z,1022.18
2016-12-30T01:25:12.981Z,1022.12
2016-12-30T01:26:23.569Z,1022.09
2016-12-30T01:27:34.302Z,1022.07
2016-12-30T01:28:44.643Z,1022.12
2016-12-30T01:29:55.374Z,1022.1
2016-12-30T01:31:06.107Z,1022.13
2016-12-30T01:32:16.454Z,1022.09
2016-12-30T01:33:27.209Z,1022.13
2016-12-30T01:34:37.544Z,1022.13
2016-12-30T01:35:48.297Z,1022.1
2016-12-30T01:36:58.636Z,1022.1
2016-12-30T01:38:09.366Z,1022.04
2016-12-30T01:39:20.101Z,1022.07
2016-12-30T01:40:30.046Z,1022.03
2016-12-30T01:41:40.385Z,1022.02
2016-12-30T01:42:50.743Z,1022.02
2016-12-30T01:44:01.083Z,1021.97
2016-12-30T01:45:11.431Z,1022
2016-12-30T01:46:21.775Z,1022.04
2016-12-30T01:47:32.109Z,1022.03
2016-12-30T01:48:42.450Z,1022
2016-12-30T01:49:52.792Z,1021.97
2016-12-30T01:51:03.538Z,1021.98
2016-12-30T01:52:13.880Z,1022
2016-12-30T01:53:24.628Z,1021.98
2016-12-30T01:54:35.369Z,1022.02
2016-12-30T01:55:45.706Z,1021.99
2016-12-30T01:56:55.667Z,1022.03
2016-12-30T01:58:06.408Z,1022.02
2016-12-30T01:59:16.754Z,1022.03
2016-12-30T02:00:27.511Z,1021.97
2016-12-30T02:01:37.850Z,1022.01
2016-12-30T02:02:48.207Z,1021.99
2016-12-30T02:03:58.552Z,1021.94
2016-12-30T02:05:08.924Z,1021.94
2016-12-30T02:06:18.897Z,1021.95
2016-12-30T02:07:29.237Z,1021.95
2016-12-30T02:08:39.587Z,1022.04
2016-12-30T02:09:50.333Z,1022.02
2016-12-30T02:11:00.669Z,1022.01
2016-12-30T02:12:11.395Z,1021.98
2016-12-30T02:13:22.131Z,1021.95
2016-12-30T02:14:32.867Z,1021.95
2016-12-30T02:15:43.206Z,1021.93
2016-12-30T02:16:52.771Z,1021.94
2016-12-30T02:18:03.517Z,1021.96
2016-12-30T02:19:14.259Z,1021.95
2016-12-30T02:20:24.996Z,1021.92
2016-12-30T02:21:35.757Z,1021.92
2016-12-30T02:22:46.510Z,1021.87
2016-12-30T02:23:56.851Z,1021.87
2016-12-30T02:25:07.223Z,1021.84
2016-12-30T02:26:17.970Z,1021.82
2016-12-30T02:27:28.348Z,1021.84
2016-12-30T02:28:38.725Z,1021.77
2016-12-30T02:29:48.678Z,1021.8
2016-12-30T02:30:59.011Z,1021.73
2016-12-30T02:32:09.359Z,1021.7
2016-12-30T02:33:19.704Z,1021.62
2016-12-30T02:34:30.039Z,1021.63
2016-12-30T02:35:40.389Z,1021.61
2016-12-30T02:36:50.730Z,1021.59
2016-12-30T02:38:00.670Z,1021.62
2016-12-30T02:39:11.013Z,1021.58
2016-12-30T02:40:21.743Z,1021.6
2016-12-30T02:41:32.105Z,1021.58
2016-12-30T02:42:42.053Z,1021.56
2016-12-30T02:43:52.419Z,1021.53
2016-12-30T02:45:02.375Z,1021.53
2016-12-30T02:46:13.099Z,1021.52
2016-12-30T02:47:23.440Z,1021.52
2016-12-30T02:48:34.161Z,1021.55
2016-12-30T02:49:44.502Z,1021.5
2016-12-30T02:50:54.839Z,1021.57
2016-12-30T02:52:04.785Z,1021.56
2016-12-30T02:53:15.522Z,1021.56
2016-12-30T02:54:26.251Z,1021.53
2016-12-30T02:55:36.591Z,1021.55
2016-12-30T02:56:47.328Z,1021.53
2016-12-30T02:57:57.694Z,1021.56
2016-12-30T02:59:08.422Z,1021.53
2016-12-30T03:00:18.371Z,1021.5
2016-12-30T03:01:29.124Z,1021.47
2016-12-30T03:33:13.479Z,1021.33
2016-12-30T03:34:24.211Z,1021.33
2016-12-30T03:35:34.134Z,1021.36
2016-12-30T03:36:44.471Z,1021.34
2016-12-30T03:37:55.202Z,1021.34
2016-12-30T03:39:05.928Z,1021.34
2016-12-30T03:40:16.285Z,1021.32
2016-12-30T03:41:27.012Z,1021.32
2016-12-30T03:42:36.953Z,1021.29
2016-12-30T03:43:47.294Z,1021.28
2016-12-30T03:44:58.021Z,1021.26
2016-12-30T03:46:08.751Z,1021.29
2016-12-30T03:47:19.500Z,1021.27
2016-12-30T03:48:30.230Z,1021.28
2016-12-30T03:49:40.570Z,1021.31
2016-12-30T03:50:51.302Z,1021.32
2016-12-30T03:52:01.267Z,1021.32
2016-12-30T03:53:11.219Z,1021.31
2016-12-30T03:54:21.544Z,1021.31
2016-12-30T03:55:31.881Z,1021.31
2016-12-30T03:56:42.233Z,1021.33
2016-12-30T03:57:52.176Z,1021.32
2016-12-30T03:59:02.526Z,1021.35
2016-12-30T04:00:12.869Z,1021.26
2016-12-30T04:01:23.205Z,1021.26
2016-12-30T04:02:33.557Z,1021.28
2016-12-30T04:03:44.286Z,1021.32
2016-12-30T04:04:55.017Z,1021.32
2016-12-30T04:06:05.773Z,1021.32
2016-12-30T04:07:16.100Z,1021.32
2016-12-30T04:08:26.840Z,1021.28
2016-12-30T04:09:37.177Z,1021.31
2016-12-30T04:10:47.508Z,1021.25
2016-12-30T04:11:58.252Z,1021.27
2016-12-30T04:13:08.983Z,1021.24
2016-12-30T04:14:19.321Z,1021.22
2016-12-30T04:15:29.661Z,1021.23
2016-12-30T04:16:40.407Z,1021.16
2016-12-30T04:17:50.984Z,1021.15
2016-12-30T04:19:01.713Z,1021.14
2016-12-30T04:20:12.448Z,1021.16
2016-12-30T04:21:23.180Z,1021.16
2016-12-30T04:22:33.526Z,1021.15
2016-12-30T04:23:44.292Z,1021.14
2016-12-30T04:24:55.040Z,1021.1
2016-12-30T04:26:05.779Z,1021.08
2016-12-30T04:27:16.505Z,1021.08
2016-12-30T04:28:27.241Z,1021.1
2016-12-30T04:29:37.592Z,1021.12
2016-12-30T04:30:48.363Z,1021.15
2016-12-30T04:31:59.094Z,1021.16
2016-12-30T04:33:09.842Z,1021.17
2016-12-30T04:34:20.583Z,1021.14
2016-12-30T04:35:30.912Z,1021.11
2016-12-30T04:36:41.637Z,1021.12
2016-12-30T04:37:52.379Z,1021.1
2016-12-30T04:39:03.105Z,1021.13
2016-12-30T04:40:13.842Z,1021.11
2016-12-30T04:41:23.794Z,1021.11
2016-12-30T04:42:34.145Z,1021.07
2016-12-30T04:43:44.492Z,1021.12
2016-12-30T04:44:54.839Z,1021.1
2016-12-30T04:46:05.591Z,1021.17
2016-12-30T04:47:15.929Z,1021.19
2016-12-30T04:48:26.655Z,1021.18
2016-12-30T04:49:37.391Z,1021.22
2016-12-30T04:50:47.728Z,1021.23
2016-12-30T04:51:58.465Z,1021.3
2016-12-30T04:53:09.233Z,1021.31
2016-12-30T04:54:19.978Z,1021.29
2016-12-30T04:55:30.715Z,1021.26
2016-12-30T04:56:41.452Z,1021.28
2016-12-30T04:57:52.203Z,1021.3
2016-12-30T04:59:02.553Z,1021.3
2016-12-30T05:00:12.117Z,1021.29
2016-12-30T05:01:22.852Z,1021.31
2016-12-30T05:02:33.590Z,1021.34
2016-12-30T05:03:44.337Z,1021.35
2016-12-30T05:04:54.294Z,1021.39
2016-12-30T05:06:03.870Z,1021.42
2016-12-30T05:07:14.214Z,1021.42
2016-12-30T05:08:24.548Z,1021.36
2016-12-30T05:09:34.879Z,1021.37
2016-12-30T05:10:45.228Z,1021.39
2016-12-30T05:11:55.974Z,1021.37
2016-12-30T05:13:06.718Z,1021.35
2016-12-30T05:14:17.452Z,1021.4
2016-12-30T05:15:28.225Z,1021.34
2016-12-30T05:16:38.951Z,1021.38
2016-12-30T05:17:48.883Z,1021.34
2016-12-30T05:18:59.624Z,1021.33
2016-12-30T05:20:09.980Z,1021.32
2016-12-30T05:21:20.725Z,1021.33
2016-12-30T05:22:31.461Z,1021.3
2016-12-30T05:23:42.206Z,1021.3
2016-12-30T05:24:52.949Z,1021.29
2016-12-30T05:26:03.681Z,1021.3
2016-12-30T05:27:14.442Z,1021.32
2016-12-30T05:28:24.771Z,1021.29
2016-12-30T05:29:35.501Z,1021.26
2016-12-30T05:30:46.246Z,1021.21
2016-12-30T05:31:56.984Z,1021.19
2016-12-30T05:33:06.141Z,1021.19
2016-12-30T05:34:16.890Z,1021.18
2016-12-30T05:35:27.225Z,1021.2
2016-12-30T05:36:37.562Z,1021.21
2016-12-30T05:37:47.900Z,1021.23
2016-12-30T05:38:58.648Z,1021.23
2016-12-30T05:40:09.379Z,1021.2
2016-12-30T05:41:19.718Z,1021.18
2016-12-30T05:42:30.449Z,1021.23
2016-12-30T05:43:41.196Z,1021.24
2016-12-30T05:44:51.537Z,1021.23
2016-12-30T05:46:01.886Z,1021.22
2016-12-30T05:47:12.232Z,1021.21
2016-12-30T05:48:22.974Z,1021.24
2016-12-30T05:49:33.723Z,1021.23
2016-12-30T05:50:44.102Z,1021.21
2016-12-30T05:51:54.432Z,1021.18
2016-12-30T05:53:05.166Z,1021.16
2016-12-30T05:54:15.896Z,1021.15
2016-12-30T05:55:26.228Z,1021.15
2016-12-30T05:56:36.974Z,1021.15
2016-12-30T05:57:47.711Z,1021.15
2016-12-30T05:58:58.058Z,1021.15
2016-12-30T06:00:08.796Z,1021.15
2016-12-30T06:01:18.751Z,1021.17
2016-12-30T06:02:29.128Z,1021.16
2016-12-30T06:03:39.865Z,1021.2
2016-12-30T06:04:50.599Z,1021.17
2016-12-30T06:06:01.334Z,1021.18
2016-12-30T06:07:12.080Z,1021.12
2016-12-30T06:08:22.458Z,1021.16
2016-12-30T06:09:32.799Z,1021.14
2016-12-30T06:10:43.521Z,1021.2
2016-12-30T06:11:54.282Z,1021.19
2016-12-30T06:13:04.639Z,1021.16
2016-12-30T06:14:15.010Z,1021.18
2016-12-30T06:15:25.351Z,1021.19
2016-12-30T06:16:35.685Z,1021.21
2016-12-30T06:17:45.636Z,1021.23
2016-12-30T06:18:56.362Z,1021.24
2016-12-30T06:20:06.320Z,1021.25
2016-12-30T06:21:17.061Z,1021.27
2016-12-30T06:22:27.429Z,1021.25
2016-12-30T06:23:38.168Z,1021.28
2016-12-30T06:24:48.890Z,1021.29
2016-12-30T06:25:59.631Z,1021.32
2016-12-30T06:27:10.370Z,1021.35
2016-12-30T06:28:21.111Z,1021.3
2016-12-30T06:29:31.478Z,1021.31
2016-12-30T06:30:42.209Z,1021.29
2016-12-30T06:31:52.946Z,1021.27
2016-12-30T06:33:03.319Z,1021.3
2016-12-30T06:34:13.667Z,1021.32
2016-12-30T06:35:24.017Z,1021.34
2016-12-30T06:36:34.359Z,1021.41
2016-12-30T06:37:45.109Z,1021.43
2016-12-30T06:38:55.452Z,1021.43
2016-12-30T06:40:05.014Z,1021.46
2016-12-30T06:41:15.791Z,1021.42
2016-12-30T06:42:26.128Z,1021.36
2016-12-30T06:43:36.859Z,1021.41
2016-12-30T06:44:47.177Z,1021.42
2016-12-30T06:45:57.515Z,1021.43
2016-12-30T06:47:08.239Z,1021.43
2016-12-30T06:48:18.981Z,1021.39
2016-12-30T06:49:29.734Z,1021.38
2016-12-30T06:50:40.460Z,1021.34
2016-12-30T06:51:50.817Z,1021.35
2016-12-30T06:53:00.373Z,1021.39
2016-12-30T06:54:11.096Z,1021.36
2016-12-30T06:55:21.861Z,1021.36
2016-12-30T06:56:32.597Z,1021.34
2016-12-30T06:57:42.941Z,1021.33
2016-12-30T06:58:53.291Z,1021.35
2016-12-30T07:00:04.018Z,1021.38
2016-12-30T07:01:14.384Z,1021.41
2016-12-30T07:02:25.117Z,1021.42
2016-12-30T07:03:35.489Z,1021.38
2016-12-30T07:04:46.235Z,1021.39
2016-12-30T07:05:56.577Z,1021.31
2016-12-30T07:07:07.324Z,1021.31
2016-12-30T07:08:18.055Z,1021.29
2016-12-30T07:09:28.796Z,1021.31
2016-12-30T07:10:39.540Z,1021.29
2016-12-30T07:11:49.880Z,1021.29
2016-12-30T07:13:00.218Z,1021.25
2016-12-30T07:14:10.549Z,1021.28
2016-12-30T07:15:21.276Z,1021.19
2016-12-30T07:16:31.224Z,1021.26
2016-12-30T07:17:41.968Z,1021.21
2016-12-30T07:18:52.327Z,1021.2
2016-12-30T07:20:03.067Z,1021.17
2016-12-30T07:21:13.419Z,1021.17
2016-12-30T07:22:24.186Z,1021.15
2016-12-30T07:23:34.540Z,1021.16
2016-12-30T07:24:44.879Z,1021.15
2016-12-30T07:25:55.226Z,1021.17
2016-12-30T07:27:05.182Z,1021.17
2016-12-30T07:28:15.544Z,1021.18
2016-12-30T07:29:25.885Z,1021.18
2016-12-30T07:30:36.648Z,1021.21
2016-12-30T07:31:46.989Z,1021.22
2016-12-30T07:32:57.340Z,1021.21
2016-12-30T07:34:07.727Z,1021.17
2016-12-30T07:35:18.469Z,1021.18
2016-12-30T07:36:28.811Z,1021.22
2016-12-30T07:37:39.533Z,1021.25
2016-12-30T07:38:50.300Z,1021.27
2016-12-30T07:40:01.042Z,1021.27
2016-12-30T07:41:12.013Z,1021.24
2016-12-30T07:42:22.345Z,1021.23
2016-12-30T07:43:32.690Z,1021.18
2016-12-30T07:44:43.465Z,1021.22
2016-12-30T07:45:53.814Z,1021.26
2016-12-30T07:47:04.547Z,1021.22
2016-12-30T07:48:15.288Z,1021.29
2016-12-30T07:49:25.230Z,1021.26
2016-12-30T07:50:35.961Z,1021.21
2016-12-30T07:51:46.318Z,1021.19
2016-12-30T07:52:56.670Z,1021.25
2016-12-30T07:54:07.011Z,1021.29
2016-12-30T07:55:17.393Z,1021.3
2016-12-30T07:56:27.785Z,1021.24
2016-12-30T07:57:37.738Z,1021.23
2016-12-30T07:58:48.497Z,1021.23
2016-12-30T07:59:58.856Z,1021.2
2016-12-30T08:01:09.592Z,1021.24
2016-12-30T08:02:19.573Z,1021.27
2016-12-30T08:03:29.919Z,1021.21
2016-12-30T08:04:40.268Z,1021.21
2016-12-30T08:05:50.613Z,1021.24
2016-12-30T08:07:01.352Z,1021.17
2016-12-30T08:08:12.127Z,1021.15
2016-12-30T08:09:22.483Z,1021.14
2016-12-30T08:10:33.215Z,1021.13
2016-12-30T08:11:43.557Z,1021.21
2016-12-30T08:12:54.279Z,1021.18
2016-12-30T08:14:05.025Z,1021.19
2016-12-30T08:15:15.394Z,1021.2
2016-12-30T08:16:26.138Z,1021.18
2016-12-30T08:17:36.880Z,1021.25
2016-12-30T08:18:47.233Z,1021.21
2016-12-30T08:19:57.968Z,1021.21
2016-12-30T08:21:08.320Z,1021.21
2016-12-30T08:22:19.050Z,1021.24
2016-12-30T08:23:29.804Z,1021.2
2016-12-30T08:24:40.561Z,1021.26
2016-12-30T08:25:51.304Z,1021.26
2016-12-30T08:27:01.250Z,1021.28
2016-12-30T08:28:11.207Z,1021.29
2016-12-30T08:29:21.563Z,1021.25
2016-12-30T08:30:31.910Z,1021.28
2016-12-30T08:31:42.261Z,1021.25
2016-12-30T08:32:52.617Z,1021.28
2016-12-30T08:34:02.969Z,1021.26
2016-12-30T08:35:12.922Z,1021.27
2016-12-30T08:36:23.672Z,1021.28
2016-12-30T08:37:34.019Z,1021.26
2016-12-30T08:38:44.756Z,1021.25
2016-12-30T08:39:54.707Z,1021.26
2016-12-30T08:41:05.069Z,1021.25
2016-12-30T08:42:15.816Z,1021.29
2016-12-30T08:43:25.767Z,1021.29
2016-12-30T08:44:36.500Z,1021.28
2016-12-30T08:45:47.239Z,1021.27
2016-12-30T08:46:57.574Z,1021.27
2016-12-30T08:48:07.921Z,1021.29
2016-12-30T08:49:17.922Z,1021.32
2016-12-30T08:50:27.884Z,1021.34
2016-12-30T08:51:37.425Z,1021.41
2016-12-30T08:52:48.171Z,1021.4
2016-12-30T08:53:58.509Z,1021.41
2016-12-30T08:55:09.264Z,1021.35
2016-12-30T08:56:19.611Z,1021.39
2016-12-30T08:57:30.359Z,1021.39
2016-12-30T08:58:40.735Z,1021.38
2016-12-30T08:59:51.081Z,1021.4
2016-12-30T09:01:01.827Z,1021.36
2016-12-30T09:02:12.162Z,1021.33
2016-12-30T09:03:22.512Z,1021.35
2016-12-30T09:04:32.879Z,1021.32
2016-12-30T09:05:43.220Z,1021.34
2016-12-30T09:06:53.961Z,1021.33
2016-12-30T09:08:04.735Z,1021.31
2016-12-30T09:09:15.070Z,1021.31
2016-12-30T09:10:25.446Z,1021.32
2016-12-30T09:11:36.169Z,1021.27
2016-12-30T09:12:46.106Z,1021.26
2016-12-30T09:13:56.441Z,1021.28
2016-12-30T09:15:06.398Z,1021.27
2016-12-30T09:16:16.730Z,1021.35
2016-12-30T09:17:27.492Z,1021.31
2016-12-30T09:18:37.450Z,1021.28
2016-12-30T09:19:48.195Z,1021.28
2016-12-30T09:20:58.927Z,1021.31
2016-12-30T09:22:08.894Z,1021.29
2016-12-30T09:23:19.261Z,1021.29
2016-12-30T09:24:29.602Z,1021.21
2016-12-30T09:25:39.952Z,1021.25
2016-12-30T09:26:50.690Z,1021.22
2016-12-30T09:28:01.042Z,1021.22
2016-12-30T09:29:11.395Z,1021.22
2016-12-30T09:30:21.760Z,1021.19
2016-12-30T09:31:32.518Z,1021.18
2016-12-30T09:32:42.864Z,1021.14
2016-12-30T09:33:53.203Z,1021.15
2016-12-30T09:35:03.933Z,1021.1
2016-12-30T09:36:14.679Z,1021.05
2016-12-30T09:37:25.021Z,1021.03
2016-12-30T09:38:35.778Z,1021
2016-12-30T09:39:46.535Z,1021
2016-12-30T09:40:56.893Z,1021.02
2016-12-30T09:42:07.237Z,1020.98
2016-12-30T09:43:17.980Z,1020.96
2016-12-30T09:44:28.326Z,1020.96
2016-12-30T09:45:39.073Z,1020.95
2016-12-30T09:46:49.419Z,1020.92
2016-12-30T09:47:59.761Z,1020.97
2016-12-30T09:49:10.498Z,1020.94
2016-12-30T09:50:21.236Z,1020.97
2016-12-30T09:51:31.971Z,1020.97
2016-12-30T09:52:42.710Z,1020.95
2016-12-30T09:53:52.674Z,1020.93
2016-12-30T09:55:03.012Z,1020.88
2016-12-30T09:56:13.358Z,1020.86
2016-12-30T09:57:24.095Z,1020.83
2016-12-30T09:58:34.089Z,1020.87
2016-12-30T09:59:44.819Z,1020.92
2016-12-30T10:00:54.379Z,1020.94
2016-12-30T10:02:04.726Z,1020.98
2016-12-30T10:03:15.459Z,1020.98
2016-12-30T10:04:26.205Z,1020.95
2016-12-30T10:05:36.947Z,1020.92
2016-12-30T10:06:47.299Z,1020.85
2016-12-30T10:07:58.046Z,1020.81
2016-12-30T10:09:08.002Z,1020.73
2016-12-30T10:10:18.359Z,1020.7
2016-12-30T10:11:29.107Z,1020.71
2016-12-30T10:12:39.497Z,1020.74
2016-12-30T10:13:50.254Z,1020.72
2016-12-30T10:15:00.210Z,1020.78
2016-12-30T10:16:10.571Z,1020.79
2016-12-30T10:17:20.924Z,1020.79
2016-12-30T10:18:31.286Z,1020.81
2016-12-30T10:19:42.047Z,1020.84
2016-12-30T10:20:52.405Z,1020.82
2016-12-30T10:22:02.352Z,1020.81
2016-12-30T10:23:12.708Z,1020.86
2016-12-30T10:24:23.455Z,1020.83
2016-12-30T10:25:33.801Z,1020.83
2016-12-30T10:26:44.153Z,1020.84
2016-12-30T10:27:54.480Z,1020.79
2016-12-30T10:29:04.835Z,1020.85
2016-12-30T10:30:14.795Z,1020.83
2016-12-30T10:31:25.139Z,1020.81
2016-12-30T10:32:35.486Z,1020.76
2016-12-30T10:33:46.238Z,1020.73
2016-12-30T10:34:56.590Z,1020.74
2016-12-30T10:36:06.976Z,1020.67
2016-12-30T10:37:17.318Z,1020.67
2016-12-30T10:38:27.660Z,1020.62
2016-12-30T10:39:38.401Z,1020.61
2016-12-30T10:40:48.743Z,1020.55
2016-12-30T10:41:59.493Z,1020.51
2016-12-30T10:43:10.243Z,1020.53
2016-12-30T10:44:20.589Z,1020.5
2016-12-30T10:45:31.334Z,1020.51
2016-12-30T10:46:41.688Z,1020.51
2016-12-30T10:47:52.059Z,1020.53
2016-12-30T10:49:02.411Z,1020.52
2016-12-30T10:50:12.377Z,1020.55
2016-12-30T10:51:22.340Z,1020.54
2016-12-30T10:52:32.685Z,1020.53
2016-12-30T10:53:43.443Z,1020.52
2016-12-30T10:54:53.818Z,1020.47
2016-12-30T10:56:04.626Z,1020.46
2016-12-30T10:57:15.394Z,1020.44
2016-12-30T10:58:25.773Z,1020.42
2016-12-30T10:59:36.521Z,1020.4
2016-12-30T11:00:47.267Z,1020.43
2016-12-30T11:01:58.015Z,1020.47
2016-12-30T11:03:07.980Z,1020.47
2016-12-30T11:04:18.320Z,1020.44
2016-12-30T11:05:28.685Z,1020.47
2016-12-30T11:06:39.436Z,1020.45
2016-12-30T11:07:49.404Z,1020.47
2016-12-30T11:08:59.341Z,1020.45
2016-12-30T11:10:09.691Z,1020.45
2016-12-30T11:11:20.067Z,1020.43
2016-12-30T11:12:30.814Z,1020.38
2016-12-30T11:13:41.553Z,1020.39
2016-12-30T11:14:51.885Z,1020.33
2016-12-30T11:16:02.619Z,1020.32
2016-12-30T11:17:12.962Z,1020.31
2016-12-30T11:18:22.521Z,1020.3
2016-12-30T11:19:33.271Z,1020.29
2016-12-30T11:20:42.830Z,1020.27
2016-12-30T11:21:53.603Z,1020.29
2016-12-30T11:23:04.358Z,1020.29
2016-12-30T11:24:15.112Z,1020.32
2016-12-30T11:25:24.684Z,1020.31
2016-12-30T11:26:35.029Z,1020.33
2016-12-30T11:27:45.785Z,1020.31
2016-12-30T11:28:55.743Z,1020.31
2016-12-30T11:30:06.482Z,1020.3
2016-12-30T11:31:16.851Z,1020.28
2016-12-30T11:32:26.837Z,1020.27
2016-12-30T11:33:37.593Z,1020.25
2016-12-30T11:41:08.956Z,1020.09
2016-12-30T11:42:19.718Z,1020.06
2016-12-30T11:43:30.464Z,1020.06
2016-12-30T11:44:40.803Z,1020.06
2016-12-30T11:45:50.758Z,1020.05
2016-12-30T11:47:01.504Z,1020.01
2016-12-30T11:48:12.255Z,1020.01
2016-12-30T11:49:23.008Z,1020.02
2016-12-30T11:50:32.973Z,1020.01
2016-12-30T11:51:42.941Z,1020.02
2016-12-30T11:52:53.718Z,1020
2016-12-30T11:54:04.723Z,1020
2016-12-30T11:55:14.303Z,1019.98
2016-12-30T11:56:25.051Z,1019.98
2016-12-30T11:57:35.790Z,1020.01
2016-12-30T11:58:46.135Z,1019.97
2016-12-30T11:59:55.700Z,1019.95
2016-12-30T12:01:06.051Z,1019.95
2016-12-30T12:02:16.005Z,1019.87
2016-12-30T12:03:26.772Z,1019.9
2016-12-30T12:04:37.526Z,1019.87
2016-12-30T12:05:47.876Z,1019.89
2016-12-30T12:06:58.610Z,1019.9
2016-12-30T12:08:09.028Z,1019.86
2016-12-30T12:09:19.778Z,1019.85
2016-12-30T12:10:30.140Z,1019.86
2016-12-30T12:11:40.513Z,1019.78
2016-12-30T12:12:50.857Z,1019.8
2016-12-30T12:14:00.871Z,1019.8
2016-12-30T12:15:11.224Z,1019.78
2016-12-30T12:16:21.585Z,1019.75
2016-12-30T12:17:32.359Z,1019.78
2016-12-30T12:18:43.092Z,1019.74
2016-12-30T12:19:53.447Z,1019.71
2016-12-30T12:21:04.216Z,1019.68
2016-12-30T12:22:14.970Z,1019.63
2016-12-30T12:23:24.934Z,1019.65
2016-12-30T12:24:35.707Z,1019.55
2016-12-30T12:25:46.474Z,1019.63
2016-12-30T12:26:57.218Z,1019.61
2016-12-30T12:28:07.964Z,1019.65
2016-12-30T12:29:17.943Z,1019.66
2016-12-30T12:30:27.891Z,1019.61
2016-12-30T12:31:37.846Z,1019.61
2016-12-30T12:32:47.426Z,1019.58
2016-12-30T12:33:57.392Z,1019.55
2016-12-30T12:35:07.736Z,1019.59
2016-12-30T12:36:18.503Z,1019.57
2016-12-30T12:37:28.875Z,1019.55
2016-12-30T12:38:39.231Z,1019.51
2016-12-30T12:39:49.192Z,1019.52
2016-12-30T12:40:59.944Z,1019.48
2016-12-30T12:42:09.917Z,1019.44
2016-12-30T12:43:19.878Z,1019.43
2016-12-30T12:44:30.665Z,1019.41
2016-12-30T12:45:40.630Z,1019.38
2016-12-30T12:46:51.383Z,1019.37
2016-12-30T12:48:02.185Z,1019.41
2016-12-30T12:49:12.932Z,1019.36
2016-12-30T12:50:23.714Z,1019.39
2016-12-30T12:51:34.072Z,1019.38
2016-12-30T12:52:44.837Z,1019.36
2016-12-30T12:53:55.210Z,1019.31
2016-12-30T12:55:05.565Z,1019.33
2016-12-30T12:56:15.947Z,1019.34
2016-12-30T12:57:26.306Z,1019.34
2016-12-30T12:58:37.066Z,1019.36
2016-12-30T12:59:47.050Z,1019.28
2016-12-30T13:00:57.414Z,1019.26
2016-12-30T13:02:07.415Z,1019.25
2016-12-30T13:03:17.384Z,1019.25
2016-12-30T13:04:28.121Z,1019.21
2016-12-30T13:05:38.472Z,1019.19
2016-12-30T13:06:48.869Z,1019.21
2016-12-30T13:07:59.624Z,1019.24
2016-12-30T13:09:10.402Z,1019.25
2016-12-30T13:10:20.765Z,1019.22
2016-12-30T13:11:31.156Z,1019.2
2016-12-30T13:12:41.932Z,1019.2
2016-12-30T13:13:51.904Z,1019.24
2016-12-30T13:15:02.245Z,1019.23
2016-12-30T13:16:12.601Z,1019.21
2016-12-30T13:17:21.777Z,1019.24
2016-12-30T13:18:31.729Z,1019.26
2016-12-30T13:19:42.077Z,1019.24
2016-12-30T13:20:52.814Z,1019.31
2016-12-30T13:22:03.180Z,1019.29
2016-12-30T13:23:13.935Z,1019.27
2016-12-30T13:24:24.288Z,1019.29
2016-12-30T13:25:34.245Z,1019.27
2016-12-30T13:26:44.600Z,1019.24
2016-12-30T13:27:54.948Z,1019.27
2016-12-30T13:29:04.954Z,1019.27
2016-12-30T13:30:15.580Z,1019.31
2016-12-30T13:31:25.928Z,1019.28
2016-12-30T13:32:36.672Z,1019.24
2016-12-30T13:33:47.021Z,1019.26
2016-12-30T13:34:57.761Z,1019.24
2016-12-30T13:36:08.546Z,1019.29
2016-12-30T13:37:18.912Z,1019.27
2016-12-30T13:38:29.288Z,1019.3
2016-12-30T13:39:39.642Z,1019.33
2016-12-30T13:40:50.376Z,1019.3
2016-12-30T13:42:00.728Z,1019.33
2016-12-30T13:43:11.074Z,1019.27
2016-12-30T13:44:21.094Z,1019.3
2016-12-30T13:45:31.431Z,1019.26
2016-12-30T13:46:41.789Z,1019.26
2016-12-30T13:47:52.542Z,1019.29
2016-12-30T13:49:03.296Z,1019.3
2016-12-30T13:50:13.274Z,1019.28
2016-12-30T13:51:23.616Z,1019.26
2016-12-30T13:52:33.958Z,1019.31
2016-12-30T13:53:44.732Z,1019.29
2016-12-30T13:54:55.082Z,1019.29
2016-12-30T13:56:05.443Z,1019.3
2016-12-30T13:57:15.803Z,1019.29
2016-12-30T13:58:26.558Z,1019.27
2016-12-30T13:59:36.913Z,1019.31
2016-12-30T14:00:47.274Z,1019.32
2016-12-30T14:01:58.075Z,1019.33
2016-12-30T14:03:08.855Z,1019.35
2016-12-30T14:04:19.624Z,1019.31
2016-12-30T14:05:30.367Z,1019.35
2016-12-30T14:06:41.347Z,1019.33
2016-12-30T14:07:51.715Z,1019.29
2016-12-30T14:09:02.496Z,1019.28
2016-12-30T14:10:12.478Z,1019.27
2016-12-30T14:11:22.443Z,1019.25
2016-12-30T14:12:32.796Z,1019.18
2016-12-30T14:13:43.143Z,1019.2
2016-12-30T14:14:52.750Z,1019.18
2016-12-30T14:16:03.512Z,1019.23
2016-12-30T14:17:13.873Z,1019.18
2016-12-30T14:18:24.631Z,1019.21
2016-12-30T14:19:35.386Z,1019.18
2016-12-30T14:20:45.744Z,1019.17
2016-12-30T14:21:55.700Z,1019.08
2016-12-30T14:23:06.063Z,1019.09
2016-12-30T14:24:16.809Z,1019.12
2016-12-30T14:25:27.164Z,1019.1
2016-12-30T14:26:37.527Z,1019.08
2016-12-30T14:27:48.296Z,1019.11
2016-12-30T14:28:59.292Z,1019.04
2016-12-30T14:30:09.638Z,1019.05
2016-12-30T14:31:19.588Z,1018.99
2016-12-30T14:32:29.994Z,1019.03
2016-12-30T14:33:40.731Z,1019.01
2016-12-30T14:34:51.060Z,1019.05
2016-12-30T14:36:01.800Z,1019.02
2016-12-30T14:37:12.535Z,1019
2016-12-30T14:38:23.303Z,1018.98
2016-12-30T14:39:34.041Z,1019.05
2016-12-30T14:40:44.398Z,1018.99
2016-12-30T14:41:55.147Z,1018.96
2016-12-30T14:43:05.511Z,1018.94
2016-12-30T14:44:15.062Z,1018.91
2016-12-30T14:45:25.800Z,1018.88
2016-12-30T14:46:36.149Z,1018.86
2016-12-30T14:47:46.534Z,1018.87
2016-12-30T14:48:57.314Z,1018.82
2016-12-30T14:50:08.061Z,1018.75
2016-12-30T14:51:18.427Z,1018.76
2016-12-30T14:52:28.374Z,1018.78